aviador You're here:

LFPG Decoded Metar

PARIS CHARLES DE GAULLE in FRANCE
Report Time2017-10-22 06:00:00
UTC Time2017-10-22 06:25:31
Flight Rules mvfr MVFR
Wind240° at 16 kt
W.Decomp.*RWY 26: 15.1 kt HW 5.2 kt LCW
RWY 27: 14.0 kt HW 7.8 kt LCW
W.Rank240° ranks 2
Current wind is above 240° avg. (9.3)
Visibility9999 m
Phenomena:N/A
Clouds:Broken 024 Hf
Scattered 033 Hf
Expected CloudBase > 1,600 ft AGL from Temp-Dew spread
Ceiling2,400 ft
Temp10°C (ISA -4)
Dew Point06°C (76% RH)
AAT3.3°C
QNH1016 hPa
Density Alt-128 ft
Elevation358 ft
Report Wrong Elevation
Raw Report
LFPG 220600Z 24016KT 9999 BKN024 SCT033 10/06 Q1016 NOSIG=

Extra information for LFPG:More info

Metar Taf Metar & Taf Last 4 Metars F.Rules Stats Wind Profile Meteogram Temp Stats Airport Information Weather charts Add Link Nearby VenuesMetar ALERT Operation Metar Decoded Social comments